Time,TemperatureF,DewpointF,PressureIn,WindDirection,WindDirectionDegrees,WindSpeedMPH,WindSpeedGustMPH,Humidity,HourlyPrecipIn,Conditions,Clouds,dailyrainin,SolarRadiationWatts/m^2,SoftwareType,DateUTC
2013-03-27 00:02:00,45.0,9.0,30.21,SSE,148,9.0,10.0,23,0.00,,,-99.99,0.003000,,2013-03-27 05:02:00,
2013-03-27 00:12:00,43.0,12.0,30.20,SE,136,10.0,10.0,28,0.00,,,-99.99,0.002000,,2013-03-27 05:12:00,
2013-03-27 00:23:00,43.0,12.0,30.20,SE,136,10.0,10.0,28,0.00,,,-99.99,0.002000,,2013-03-27 05:23:00,
2013-03-27 00:32:00,43.0,12.0,30.20,SE,136,10.0,10.0,28,0.00,,,-99.99,0.002000,,2013-03-27 05:32:00,
2013-03-27 00:42:00,42.0,13.0,30.20,ESE,118,9.0,10.0,30,0.00,,,-99.99,0.000000,,2013-03-27 05:42:00,
2013-03-27 00:52:00,42.0,13.0,30.20,ESE,118,9.0,10.0,30,0.00,,,-99.99,0.000000,,2013-03-27 05:52:00,
2013-03-27 01:02:00,42.0,13.0,30.20,ESE,118,9.0,10.0,30,0.00,,,-99.99,0.000000,,2013-03-27 06:02:00,
2013-03-27 01:12:00,42.0,13.0,30.19,SE,131,11.0,12.0,30,0.00,,,-99.99,0.000000,,2013-03-27 06:12:00,
2013-03-27 01:22:00,42.0,13.0,30.19,SE,131,11.0,12.0,30,0.00,,,-99.99,0.000000,,2013-03-27 06:22:00,
2013-03-27 01:32:00,42.0,13.0,30.19,SE,131,11.0,12.0,30,0.00,,,-99.99,0.000000,,2013-03-27 06:32:00,
2013-03-27 01:42:00,47.0,14.0,30.19,SE,141,10.0,11.0,27,0.00,,,-99.99,0.000000,,2013-03-27 06:42:00,
2013-03-27 01:52:00,47.0,14.0,30.19,SE,141,10.0,11.0,27,0.00,,,-99.99,0.000000,,2013-03-27 06:52:00,
2013-03-27 02:02:00,47.0,14.0,30.19,SE,141,10.0,11.0,27,0.00,,,-99.99,0.000000,,2013-03-27 07:02:00,
2013-03-27 02:12:00,47.0,14.0,30.18,SE,146,9.0,12.0,27,0.00,,,-99.99,0.001000,,2013-03-27 07:12:00,
2013-03-27 02:22:00,47.0,14.0,30.18,SE,146,9.0,12.0,27,0.00,,,-99.99,0.001000,,2013-03-27 07:22:00,
2013-03-27 02:32:00,47.0,14.0,30.18,SE,146,9.0,12.0,27,0.00,,,-99.99,0.001000,,2013-03-27 07:32:00,
2013-03-27 02:42:00,48.0,15.0,30.17,SE,142,9.0,12.0,26,0.00,,,-99.99,0.000000,,2013-03-27 07:42:00,
2013-03-27 02:53:00,48.0,15.0,30.17,SE,142,9.0,12.0,26,0.00,,,-99.99,0.000000,,2013-03-27 07:53:00,
2013-03-27 03:02:00,48.0,15.0,30.17,SE,142,9.0,12.0,26,0.00,,,-99.99,0.000000,,2013-03-27 08:02:00,
2013-03-27 03:12:00,48.0,15.0,30.16,SE,139,12.0,14.0,27,0.00,,,-99.99,0.001000,,2013-03-27 08:12:00,
2013-03-27 03:22:00,48.0,15.0,30.16,SE,139,12.0,14.0,27,0.00,,,-99.99,0.001000,,2013-03-27 08:22:00,
2013-03-27 03:32:00,48.0,15.0,30.16,SE,139,12.0,14.0,27,0.00,,,-99.99,0.001000,,2013-03-27 08:32:00,
2013-03-27 03:43:00,47.0,15.0,30.15,SSE,148,10.0,13.0,27,0.00,,,-99.99,0.001000,,2013-03-27 08:43:00,
2013-03-27 03:52:00,47.0,15.0,30.15,SSE,148,10.0,13.0,27,0.00,,,-99.99,0.001000,,2013-03-27 08:52:00,
2013-03-27 04:01:00,47.0,15.0,30.15,SSE,148,10.0,13.0,27,0.00,,,-99.99,0.001000,,2013-03-27 09:01:00,
2013-03-27 04:12:00,46.0,16.0,30.15,SSE,156,9.0,11.0,30,0.00,,,-99.99,0.000000,,2013-03-27 09:12:00,
2013-03-27 04:22:00,46.0,16.0,30.15,SSE,156,9.0,11.0,30,0.00,,,-99.99,0.000000,,2013-03-27 09:22:00,
2013-03-27 04:32:00,46.0,16.0,30.15,SSE,156,9.0,11.0,30,0.00,,,-99.99,0.000000,,2013-03-27 09:32:00,
2013-03-27 04:42:00,47.0,18.0,30.14,SSE,159,10.0,12.0,32,0.00,,,-99.99,0.000000,,2013-03-27 09:42:00,
2013-03-27 04:52:00,47.0,18.0,30.14,SSE,159,10.0,12.0,32,0.00,,,-99.99,0.000000,,2013-03-27 09:52:00,
2013-03-27 05:02:00,47.0,18.0,30.14,SSE,159,10.0,12.0,32,0.00,,,-99.99,0.000000,,2013-03-27 10:02:00,
2013-03-27 05:12:00,47.0,20.0,30.15,SSE,168,9.0,13.0,33,0.00,,,-99.99,0.001000,,2013-03-27 10:12:00,
2013-03-27 05:22:00,47.0,20.0,30.15,SSE,168,9.0,13.0,33,0.00,,,-99.99,0.001000,,2013-03-27 10:22:00,
2013-03-27 05:32:00,47.0,20.0,30.15,SSE,168,9.0,13.0,33,0.00,,,-99.99,0.001000,,2013-03-27 10:32:00,
2013-03-27 05:42:00,46.0,21.0,30.15,South,179,10.0,12.0,37,0.00,,,-99.99,0.000000,,2013-03-27 10:42:00,
2013-03-27 05:52:00,46.0,21.0,30.15,South,179,10.0,12.0,37,0.00,,,-99.99,0.000000,,2013-03-27 10:52:00,
2013-03-27 06:02:00,46.0,21.0,30.15,South,179,10.0,12.0,37,0.00,,,-99.99,0.000000,,2013-03-27 11:02:00,
2013-03-27 06:12:00,47.0,24.0,30.16,South,188,11.0,16.0,41,0.00,,,-99.99,0.001000,,2013-03-27 11:12:00,
2013-03-27 06:22:00,47.0,24.0,30.16,South,188,11.0,16.0,41,0.00,,,-99.99,0.001000,,2013-03-27 11:22:00,
2013-03-27 06:32:00,47.0,24.0,30.16,South,188,11.0,16.0,41,0.00,,,-99.99,0.001000,,2013-03-27 11:32:00,
2013-03-27 06:42:00,45.0,23.0,30.16,South,182,6.0,7.0,43,0.00,,,-99.99,0.000000,,2013-03-27 11:42:00,
2013-03-27 06:52:00,45.0,23.0,30.16,South,182,6.0,7.0,43,0.00,,,-99.99,0.000000,,2013-03-27 11:52:00,
2013-03-27 07:02:00,45.0,23.0,30.16,South,182,6.0,7.0,43,0.00,,,-99.99,0.000000,,2013-03-27 12:02:00,
2013-03-27 07:12:00,46.0,27.0,30.16,SSE,166,9.0,12.0,48,0.00,,,-99.99,0.000000,,2013-03-27 12:12:00,
2013-03-27 07:22:00,46.0,27.0,30.16,SSE,166,9.0,12.0,48,0.00,,,-99.99,0.000000,,2013-03-27 12:22:00,
2013-03-27 07:32:00,46.0,27.0,30.16,SSE,166,9.0,12.0,48,0.00,,,-99.99,0.000000,,2013-03-27 12:32:00,
2013-03-27 07:43:00,46.0,29.0,30.16,SSE,166,12.0,15.0,52,0.00,,,-99.99,1.414000,,2013-03-27 12:43:00,
2013-03-27 07:52:00,46.0,29.0,30.16,SSE,166,12.0,15.0,52,0.00,,,-99.99,1.414000,,2013-03-27 12:52:00,
2013-03-27 08:02:00,46.0,29.0,30.16,SSE,166,12.0,15.0,52,0.00,,,-99.99,1.414000,,2013-03-27 13:02:00,
2013-03-27 08:12:00,46.0,30.0,30.15,SSE,152,12.0,15.0,55,0.00,,,-99.99,40.430000,,2013-03-27 13:12:00,
2013-03-27 08:22:00,46.0,30.0,30.15,SSE,152,12.0,15.0,55,0.00,,,-99.99,40.430000,,2013-03-27 13:22:00,
2013-03-27 08:32:00,46.0,30.0,30.15,SSE,152,12.0,15.0,55,0.00,,,-99.99,40.430000,,2013-03-27 13:32:00,
2013-03-27 08:42:00,49.0,34.0,30.17,South,171,13.0,17.0,56,0.00,,,-99.99,118.199997,,2013-03-27 13:42:00,
2013-03-27 08:52:00,49.0,34.0,30.17,South,171,13.0,17.0,56,0.00,,,-99.99,118.199997,,2013-03-27 13:52:00,
2013-03-27 09:02:00,49.0,34.0,30.17,South,171,13.0,17.0,56,0.00,,,-99.99,118.199997,,2013-03-27 14:02:00,
2013-03-27 09:12:00,51.0,36.0,30.18,South,173,13.0,18.0,57,0.00,,,-99.99,211.399994,,2013-03-27 14:12:00,
2013-03-27 09:22:00,51.0,36.0,30.18,South,173,13.0,18.0,57,0.00,,,-99.99,211.399994,,2013-03-27 14:22:00,
2013-03-27 09:32:00,51.0,36.0,30.18,South,173,13.0,18.0,57,0.00,,,-99.99,211.399994,,2013-03-27 14:32:00,
2013-03-27 09:42:00,54.0,37.0,30.19,South,191,14.0,22.0,55,0.00,,,-99.99,317.500000,,2013-03-27 14:42:00,
2013-03-27 09:52:00,54.0,37.0,30.19,South,191,14.0,22.0,55,0.00,,,-99.99,317.500000,,2013-03-27 14:52:00,
2013-03-27 10:02:00,54.0,37.0,30.19,South,191,14.0,22.0,55,0.00,,,-99.99,317.500000,,2013-03-27 15:02:00,
2013-03-27 10:12:00,56.0,39.0,30.18,South,183,20.0,25.0,53,0.00,,,-99.99,418.600006,,2013-03-27 15:12:00,
2013-03-27 10:22:00,56.0,39.0,30.18,South,183,20.0,25.0,53,0.00,,,-99.99,418.600006,,2013-03-27 15:22:00,
2013-03-27 10:33:00,56.0,39.0,30.18,South,183,20.0,25.0,53,0.00,,,-99.99,418.600006,,2013-03-27 15:33:00,
2013-03-27 10:42:00,58.0,39.0,30.19,SSW,196,26.0,32.0,50,0.00,,,-99.99,518.000000,,2013-03-27 15:42:00,
2013-03-27 10:52:00,58.0,39.0,30.19,SSW,196,26.0,32.0,50,0.00,,,-99.99,518.000000,,2013-03-27 15:52:00,
2013-03-27 11:02:00,58.0,39.0,30.19,SSW,196,26.0,32.0,50,0.00,,,-99.99,518.000000,,2013-03-27 16:02:00,
2013-03-27 11:13:00,60.0,39.0,30.17,SSW,197,26.0,34.0,46,0.00,,,-99.99,583.299988,,2013-03-27 16:13:00,
2013-03-27 11:22:00,60.0,39.0,30.17,SSW,197,26.0,34.0,46,0.00,,,-99.99,583.299988,,2013-03-27 16:22:00,
2013-03-27 11:32:00,60.0,39.0,30.17,SSW,197,26.0,34.0,46,0.00,,,-99.99,583.299988,,2013-03-27 16:32:00,
2013-03-27 11:42:00,62.0,40.0,30.18,South,190,24.0,30.0,44,0.00,,,-99.99,684.099976,,2013-03-27 16:42:00,
2013-03-27 11:52:00,62.0,40.0,30.18,South,190,24.0,30.0,44,0.00,,,-99.99,684.099976,,2013-03-27 16:52:00,
2013-03-27 12:02:00,62.0,40.0,30.18,South,190,24.0,30.0,44,0.00,,,-99.99,684.099976,,2013-03-27 17:02:00,
2013-03-27 12:12:00,64.0,40.0,30.17,South,187,22.0,31.0,41,0.00,,,-99.99,748.000000,,2013-03-27 17:12:00,
2013-03-27 12:22:00,64.0,40.0,30.17,South,187,22.0,31.0,41,0.00,,,-99.99,748.000000,,2013-03-27 17:22:00,
2013-03-27 12:32:00,64.0,40.0,30.17,South,187,22.0,31.0,41,0.00,,,-99.99,748.000000,,2013-03-27 17:32:00,
2013-03-27 12:44:00,65.0,40.0,30.16,SSW,195,25.0,31.0,39,0.00,,,-99.99,798.000000,,2013-03-27 17:44:00,
2013-03-27 12:52:00,65.0,40.0,30.16,SSW,195,25.0,31.0,39,0.00,,,-99.99,798.000000,,2013-03-27 17:52:00,
2013-03-27 13:02:00,65.0,40.0,30.16,SSW,195,25.0,31.0,39,0.00,,,-99.99,798.000000,,2013-03-27 18:02:00,
2013-03-27 13:12:00,67.0,40.0,30.15,South,183,20.0,26.0,36,0.00,,,-99.99,839.000000,,2013-03-27 18:12:00,
2013-03-27 13:22:00,67.0,40.0,30.15,South,183,20.0,26.0,36,0.00,,,-99.99,839.000000,,2013-03-27 18:22:00,
2013-03-27 13:32:00,67.0,40.0,30.15,South,183,20.0,26.0,36,0.00,,,-99.99,839.000000,,2013-03-27 18:32:00,
2013-03-27 13:42:00,68.0,40.0,30.13,South,183,17.0,24.0,35,0.00,,,-99.99,857.000000,,2013-03-27 18:42:00,
2013-03-27 13:52:00,68.0,40.0,30.13,South,183,17.0,24.0,35,0.00,,,-99.99,857.000000,,2013-03-27 18:52:00,
2013-03-27 14:02:00,68.0,40.0,30.13,South,183,17.0,24.0,35,0.00,,,-99.99,857.000000,,2013-03-27 19:02:00,
2013-03-27 14:12:00,70.0,40.0,30.12,South,191,16.0,26.0,33,0.00,,,-99.99,852.000000,,2013-03-27 19:12:00,
2013-03-27 14:22:00,70.0,40.0,30.12,South,191,16.0,26.0,33,0.00,,,-99.99,852.000000,,2013-03-27 19:22:00,
2013-03-27 14:32:00,70.0,40.0,30.12,South,191,16.0,26.0,33,0.00,,,-99.99,852.000000,,2013-03-27 19:32:00,
2013-03-27 14:42:00,71.0,40.0,30.10,South,176,20.0,29.0,32,0.00,,,-99.99,835.000000,,2013-03-27 19:42:00,
2013-03-27 14:52:00,71.0,40.0,30.10,South,176,20.0,29.0,32,0.00,,,-99.99,835.000000,,2013-03-27 19:52:00,
2013-03-27 15:02:00,71.0,40.0,30.10,South,176,20.0,29.0,32,0.00,,,-99.99,835.000000,,2013-03-27 20:02:00,
2013-03-27 15:12:00,72.0,40.0,30.09,South,174,19.0,25.0,30,0.00,,,-99.99,629.099976,,2013-03-27 20:12:00,
2013-03-27 15:22:00,72.0,40.0,30.09,South,174,19.0,25.0,30,0.00,,,-99.99,629.099976,,2013-03-27 20:22:00,
2013-03-27 15:32:00,72.0,40.0,30.09,South,174,19.0,25.0,30,0.00,,,-99.99,629.099976,,2013-03-27 20:32:00,
2013-03-27 15:42:00,73.0,40.0,30.07,South,178,17.0,24.0,30,0.00,,,-99.99,763.000000,,2013-03-27 20:42:00,
2013-03-27 15:52:00,73.0,40.0,30.07,South,178,17.0,24.0,30,0.00,,,-99.99,763.000000,,2013-03-27 20:52:00,
2013-03-27 16:02:00,73.0,40.0,30.07,South,178,17.0,24.0,30,0.00,,,-99.99,763.000000,,2013-03-27 21:02:00,
2013-03-27 16:12:00,74.0,40.0,30.06,South,184,17.0,25.0,29,0.00,,,-99.99,703.000000,,2013-03-27 21:12:00,
2013-03-27 16:22:00,74.0,40.0,30.06,South,184,17.0,25.0,29,0.00,,,-99.99,703.000000,,2013-03-27 21:22:00,
2013-03-27 16:32:00,74.0,40.0,30.06,South,184,17.0,25.0,29,0.00,,,-99.99,703.000000,,2013-03-27 21:32:00,
2013-03-27 16:43:00,74.0,40.0,30.04,SSE,160,18.0,32.0,28,0.00,,,-99.99,623.700012,,2013-03-27 21:43:00,
2013-03-27 16:52:00,74.0,40.0,30.04,SSE,160,18.0,32.0,28,0.00,,,-99.99,623.700012,,2013-03-27 21:52:00,
2013-03-27 17:03:00,74.0,40.0,30.04,SSE,160,18.0,32.0,28,0.00,,,-99.99,623.700012,,2013-03-27 22:03:00,
2013-03-27 17:12:00,74.0,40.0,30.03,SSE,168,17.0,23.0,28,0.00,,,-99.99,565.599976,,2013-03-27 22:12:00,
2013-03-27 17:23:00,74.0,40.0,30.03,SSE,168,17.0,23.0,28,0.00,,,-99.99,565.599976,,2013-03-27 22:23:00,
2013-03-27 17:33:00,74.0,40.0,30.03,SSE,168,17.0,23.0,28,0.00,,,-99.99,565.599976,,2013-03-27 22:33:00,
2013-03-27 17:42:00,73.0,39.0,30.03,SSE,158,16.0,20.0,29,0.00,,,-99.99,394.500000,,2013-03-27 22:42:00,
2013-03-27 17:52:00,73.0,39.0,30.03,SSE,158,16.0,20.0,29,0.00,,,-99.99,394.500000,,2013-03-27 22:52:00,
2013-03-27 18:02:00,73.0,39.0,30.03,SSE,158,16.0,20.0,29,0.00,,,-99.99,394.500000,,2013-03-27 23:02:00,
2013-03-27 18:12:00,74.0,39.0,30.03,SSE,163,17.0,23.0,29,0.00,,,-99.99,350.200012,,2013-03-27 23:12:00,
2013-03-27 18:22:00,74.0,39.0,30.03,SSE,163,17.0,23.0,29,0.00,,,-99.99,350.200012,,2013-03-27 23:22:00,
2013-03-27 18:32:00,74.0,39.0,30.03,SSE,163,17.0,23.0,29,0.00,,,-99.99,350.200012,,2013-03-27 23:32:00,
2013-03-27 18:42:00,73.0,39.0,30.03,SSE,168,18.0,25.0,29,0.00,,,-99.99,245.199997,,2013-03-27 23:42:00,
2013-03-27 18:52:00,73.0,39.0,30.03,SSE,168,18.0,25.0,29,0.00,,,-99.99,245.199997,,2013-03-27 23:52:00,
2013-03-27 19:02:00,73.0,39.0,30.03,SSE,168,18.0,25.0,29,0.00,,,-99.99,245.199997,,2013-03-28 00:02:00,
2013-03-27 19:12:00,72.0,39.0,30.03,SSE,166,17.0,21.0,31,0.00,,,-99.99,138.800003,,2013-03-28 00:12:00,
2013-03-27 19:22:00,72.0,39.0,30.03,SSE,166,17.0,21.0,31,0.00,,,-99.99,138.800003,,2013-03-28 00:22:00,
2013-03-27 19:32:00,72.0,39.0,30.03,SSE,166,17.0,21.0,31,0.00,,,-99.99,138.800003,,2013-03-28 00:32:00,
2013-03-27 19:42:00,70.0,39.0,30.04,South,176,16.0,20.0,33,0.00,,,-99.99,59.500000,,2013-03-28 00:42:00,
2013-03-27 19:52:00,70.0,39.0,30.04,South,176,16.0,20.0,33,0.00,,,-99.99,59.500000,,2013-03-28 00:52:00,
2013-03-27 20:02:00,70.0,39.0,30.04,South,176,16.0,20.0,33,0.00,,,-99.99,59.500000,,2013-03-28 01:02:00,
2013-03-27 20:12:00,68.0,40.0,30.05,South,174,15.0,19.0,35,0.00,,,-99.99,4.759000,,2013-03-28 01:12:00,
2013-03-27 20:22:00,68.0,40.0,30.05,South,174,15.0,19.0,35,0.00,,,-99.99,4.759000,,2013-03-28 01:22:00,
2013-03-27 20:32:00,68.0,40.0,30.05,South,174,15.0,19.0,35,0.00,,,-99.99,4.759000,,2013-03-28 01:32:00,
2013-03-27 20:42:00,66.0,41.0,30.06,SSE,163,13.0,15.0,40,0.00,,,-99.99,0.028000,,2013-03-28 01:42:00,
2013-03-27 20:52:00,66.0,41.0,30.06,SSE,163,13.0,15.0,40,0.00,,,-99.99,0.028000,,2013-03-28 01:52:00,
2013-03-27 21:02:00,66.0,41.0,30.06,SSE,163,13.0,15.0,40,0.00,,,-99.99,0.028000,,2013-03-28 02:02:00,
2013-03-27 21:12:00,64.0,42.0,30.07,SSE,165,14.0,18.0,44,0.00,,,-99.99,0.020000,,2013-03-28 02:12:00,
2013-03-27 21:22:00,64.0,42.0,30.07,SSE,165,14.0,18.0,44,0.00,,,-99.99,0.020000,,2013-03-28 02:22:00,
2013-03-27 21:32:00,64.0,42.0,30.07,SSE,165,14.0,18.0,44,0.00,,,-99.99,0.020000,,2013-03-28 02:32:00,
2013-03-27 21:42:00,64.0,42.0,30.07,SSE,165,14.0,18.0,44,0.00,,,-99.99,0.020000,,2013-03-28 02:42:00,
2013-03-27 21:52:00,64.0,42.0,30.07,SSE,165,14.0,18.0,44,0.00,,,-99.99,0.020000,,2013-03-28 02:52:00,
2013-03-27 22:02:00,62.0,41.0,30.07,SSE,161,12.0,14.0,46,0.00,,,-99.99,0.020000,,2013-03-28 03:02:00,
2013-03-27 22:12:00,62.0,42.0,30.08,South,170,16.0,21.0,49,0.00,,,-99.99,0.020000,,2013-03-28 03:12:00,
2013-03-27 22:22:00,62.0,42.0,30.08,South,170,16.0,21.0,49,0.00,,,-99.99,0.020000,,2013-03-28 03:22:00,
2013-03-27 22:33:00,62.0,42.0,30.08,South,170,16.0,21.0,49,0.00,,,-99.99,0.020000,,2013-03-28 03:33:00,
2013-03-27 22:43:00,61.0,43.0,30.10,South,174,16.0,25.0,54,0.00,,,-99.99,0.021000,,2013-03-28 03:43:00,
2013-03-27 22:52:00,61.0,43.0,30.10,South,174,16.0,25.0,54,0.00,,,-99.99,0.021000,,2013-03-28 03:52:00,
2013-03-27 23:02:00,61.0,43.0,30.10,South,174,16.0,25.0,54,0.00,,,-99.99,0.021000,,2013-03-28 04:02:00,
2013-03-27 23:12:00,60.0,44.0,30.10,South,176,17.0,23.0,57,0.00,,,-99.99,0.022000,,2013-03-28 04:12:00,
2013-03-27 23:22:00,60.0,44.0,30.10,South,176,17.0,23.0,57,0.00,,,-99.99,0.022000,,2013-03-28 04:22:00,
2013-03-27 23:32:00,60.0,44.0,30.10,South,176,17.0,23.0,57,0.00,,,-99.99,0.022000,,2013-03-28 04:32:00,
2013-03-27 23:42:00,58.0,44.0,30.10,South,184,14.0,20.0,59,0.00,,,-99.99,0.023000,,2013-03-28 04:42:00,
2013-03-27 23:52:00,58.0,44.0,30.10,South,184,14.0,20.0,59,0.00,,,-99.99,0.023000,,2013-03-28 04:52:00,